sensor_id;sensor_type;location;lat;lon;timestamp;P1;durP1;ratioP1;P2;durP2;ratioP2
56581;SDS011;42463;52.214;21.238;2024-02-21T00:00:09;5.40;;;2.80;;
56581;SDS011;42463;52.214;21.238;2024-02-21T00:03:02;8.70;;;3.50;;
56581;SDS011;42463;52.214;21.238;2024-02-21T00:05:35;7.30;;;3.50;;
56581;SDS011;42463;52.214;21.238;2024-02-21T00:08:08;6.80;;;3.40;;
56581;SDS011;42463;52.214;21.238;2024-02-21T00:10:40;6.10;;;3.10;;
56581;SDS011;42463;52.214;21.238;2024-02-21T00:13:12;8.70;;;3.70;;
56581;SDS011;42463;52.214;21.238;2024-02-21T00:15:45;8.20;;;3.50;;
56581;SDS011;42463;52.214;21.238;2024-02-21T00:18:18;10.40;;;4.10;;
56581;SDS011;42463;52.214;21.238;2024-02-21T00:20:50;9.40;;;3.50;;
56581;SDS011;42463;52.214;21.238;2024-02-21T00:23:22;7.30;;;3.70;;
56581;SDS011;42463;52.214;21.238;2024-02-21T00:25:55;11.70;;;4.10;;
56581;SDS011;42463;52.214;21.238;2024-02-21T00:28:27;7.50;;;3.90;;
56581;SDS011;42463;52.214;21.238;2024-02-21T00:31:00;10.70;;;4.20;;
56581;SDS011;42463;52.214;21.238;2024-02-21T00:33:32;10.30;;;4.50;;
56581;SDS011;42463;52.214;21.238;2024-02-21T00:36:05;8.00;;;3.90;;
56581;SDS011;42463;52.214;21.238;2024-02-21T00:38:38;11.50;;;4.00;;
56581;SDS011;42463;52.214;21.238;2024-02-21T00:41:10;10.90;;;4.10;;
56581;SDS011;42463;52.214;21.238;2024-02-21T00:43:43;10.20;;;4.20;;
56581;SDS011;42463;52.214;21.238;2024-02-21T00:46:18;12.50;;;3.90;;
56581;SDS011;42463;52.214;21.238;2024-02-21T00:48:50;9.20;;;3.60;;
56581;SDS011;42463;52.214;21.238;2024-02-21T00:51:22;10.30;;;3.40;;
56581;SDS011;42463;52.214;21.238;2024-02-21T00:53:55;9.40;;;3.60;;
56581;SDS011;42463;52.214;21.238;2024-02-21T00:56:27;10.80;;;4.20;;
56581;SDS011;42463;52.214;21.238;2024-02-21T00:59:00;9.90;;;4.00;;
56581;SDS011;42463;52.214;21.238;2024-02-21T01:01:32;9.10;;;4.10;;
56581;SDS011;42463;52.214;21.238;2024-02-21T01:04:05;11.10;;;4.70;;
56581;SDS011;42463;52.214;21.238;2024-02-21T01:06:37;12.40;;;4.40;;
56581;SDS011;42463;52.214;21.238;2024-02-21T01:09:13;12.10;;;4.20;;
56581;SDS011;42463;52.214;21.238;2024-02-21T01:11:46;8.90;;;4.10;;
56581;SDS011;42463;52.214;21.238;2024-02-21T01:14:18;11.40;;;4.50;;
56581;SDS011;42463;52.214;21.238;2024-02-21T01:16:51;10.20;;;4.70;;
56581;SDS011;42463;52.214;21.238;2024-02-21T01:19:24;13.90;;;4.80;;
56581;SDS011;42463;52.214;21.238;2024-02-21T01:21:56;10.90;;;4.50;;
56581;SDS011;42463;52.214;21.238;2024-02-21T01:24:28;13.70;;;4.50;;
56581;SDS011;42463;52.214;21.238;2024-02-21T01:27:01;10.10;;;4.50;;
56581;SDS011;42463;52.214;21.238;2024-02-21T01:29:33;11.60;;;5.00;;
56581;SDS011;42463;52.214;21.238;2024-02-21T01:32:07;11.90;;;4.70;;
56581;SDS011;42463;52.214;21.238;2024-02-21T01:34:39;11.50;;;5.50;;
56581;SDS011;42463;52.214;21.238;2024-02-21T01:37:12;11.40;;;5.60;;
56581;SDS011;42463;52.214;21.238;2024-02-21T01:39:45;12.50;;;5.10;;
56581;SDS011;42463;52.214;21.238;2024-02-21T01:42:19;10.70;;;5.30;;
56581;SDS011;42463;52.214;21.238;2024-02-21T01:44:51;15.50;;;5.70;;
56581;SDS011;42463;52.214;21.238;2024-02-21T01:47:23;15.10;;;5.50;;
56581;SDS011;42463;52.214;21.238;2024-02-21T01:49:56;11.00;;;4.90;;
56581;SDS011;42463;52.214;21.238;2024-02-21T01:52:31;13.30;;;5.00;;
56581;SDS011;42463;52.214;21.238;2024-02-21T01:55:06;14.10;;;6.00;;
56581;SDS011;42463;52.214;21.238;2024-02-21T01:57:40;12.80;;;5.10;;
56581;SDS011;42463;52.214;21.238;2024-02-21T02:04:15;9.50;;;4.90;;
56581;SDS011;42463;52.214;21.238;2024-02-21T02:06:48;15.60;;;6.10;;
56581;SDS011;42463;52.214;21.238;2024-02-21T02:11:53;15.40;;;6.40;;
56581;SDS011;42463;52.214;21.238;2024-02-21T02:14:27;11.30;;;6.20;;
56581;SDS011;42463;52.214;21.238;2024-02-21T02:17:00;13.70;;;5.90;;
56581;SDS011;42463;52.214;21.238;2024-02-21T02:19:32;11.40;;;6.00;;
56581;SDS011;42463;52.214;21.238;2024-02-21T02:22:09;11.40;;;5.90;;
56581;SDS011;42463;52.214;21.238;2024-02-21T02:24:47;14.20;;;6.70;;
56581;SDS011;42463;52.214;21.238;2024-02-21T02:27:20;13.10;;;6.40;;
56581;SDS011;42463;52.214;21.238;2024-02-21T02:30:01;11.60;;;6.40;;
56581;SDS011;42463;52.214;21.238;2024-02-21T02:32:34;15.60;;;7.00;;
56581;SDS011;42463;52.214;21.238;2024-02-21T02:35:07;16.70;;;6.40;;
56581;SDS011;42463;52.214;21.238;2024-02-21T02:37:40;13.50;;;6.70;;
56581;SDS011;42463;52.214;21.238;2024-02-21T02:40:18;12.40;;;6.80;;
56581;SDS011;42463;52.214;21.238;2024-02-21T02:42:50;15.80;;;7.90;;
56581;SDS011;42463;52.214;21.238;2024-02-21T02:45:24;15.40;;;7.40;;
56581;SDS011;42463;52.214;21.238;2024-02-21T02:47:57;14.60;;;7.60;;
56581;SDS011;42463;52.214;21.238;2024-02-21T02:50:30;14.30;;;7.40;;
56581;SDS011;42463;52.214;21.238;2024-02-21T02:53:03;12.80;;;7.60;;
56581;SDS011;42463;52.214;21.238;2024-02-21T02:55:35;16.70;;;8.40;;
56581;SDS011;42463;52.214;21.238;2024-02-21T02:58:08;14.70;;;7.60;;
56581;SDS011;42463;52.214;21.238;2024-02-21T03:00:40;16.10;;;8.20;;
56581;SDS011;42463;52.214;21.238;2024-02-21T03:03:12;15.30;;;8.40;;
56581;SDS011;42463;52.214;21.238;2024-02-21T03:05:45;16.70;;;8.70;;
56581;SDS011;42463;52.214;21.238;2024-02-21T03:08:18;14.70;;;8.30;;
56581;SDS011;42463;52.214;21.238;2024-02-21T03:10:50;15.00;;;9.00;;
56581;SDS011;42463;52.214;21.238;2024-02-21T03:13:22;15.70;;;8.40;;
56581;SDS011;42463;52.214;21.238;2024-02-21T03:15:55;16.10;;;8.30;;
56581;SDS011;42463;52.214;21.238;2024-02-21T03:18:27;14.10;;;8.20;;
56581;SDS011;42463;52.214;21.238;2024-02-21T03:21:00;16.60;;;8.70;;
56581;SDS011;42463;52.214;21.238;2024-02-21T03:23:32;22.20;;;9.90;;
56581;SDS011;42463;52.214;21.238;2024-02-21T03:26:05;19.10;;;8.90;;
56581;SDS011;42463;52.214;21.238;2024-02-21T03:28:37;14.70;;;8.30;;
56581;SDS011;42463;52.214;21.238;2024-02-21T03:31:10;13.30;;;7.40;;
56581;SDS011;42463;52.214;21.238;2024-02-21T03:33:44;14.70;;;7.80;;
56581;SDS011;42463;52.214;21.238;2024-02-21T03:36:16;16.40;;;8.50;;
56581;SDS011;42463;52.214;21.238;2024-02-21T03:38:49;14.90;;;8.40;;
56581;SDS011;42463;52.214;21.238;2024-02-21T03:41:21;19.40;;;8.30;;
56581;SDS011;42463;52.214;21.238;2024-02-21T03:43:54;13.80;;;7.40;;
56581;SDS011;42463;52.214;21.238;2024-02-21T03:46:26;14.90;;;7.70;;
56581;SDS011;42463;52.214;21.238;2024-02-21T03:48:59;15.90;;;8.20;;
56581;SDS011;42463;52.214;21.238;2024-02-21T03:51:31;14.50;;;8.30;;
56581;SDS011;42463;52.214;21.238;2024-02-21T03:54:04;14.40;;;8.30;;
56581;SDS011;42463;52.214;21.238;2024-02-21T03:56:39;16.40;;;8.40;;
56581;SDS011;42463;52.214;21.238;2024-02-21T03:59:12;16.80;;;8.40;;
56581;SDS011;42463;52.214;21.238;2024-02-21T04:01:45;13.40;;;8.00;;
56581;SDS011;42463;52.214;21.238;2024-02-21T04:04:22;14.00;;;8.40;;
56581;SDS011;42463;52.214;21.238;2024-02-21T04:06:54;17.70;;;8.40;;
56581;SDS011;42463;52.214;21.238;2024-02-21T04:09:27;17.20;;;8.50;;
56581;SDS011;42463;52.214;21.238;2024-02-21T04:12:00;14.30;;;8.80;;
56581;SDS011;42463;52.214;21.238;2024-02-21T04:14:33;12.10;;;7.70;;
56581;SDS011;42463;52.214;21.238;2024-02-21T04:17:06;13.20;;;7.30;;
56581;SDS011;42463;52.214;21.238;2024-02-21T04:19:38;14.30;;;8.00;;
56581;SDS011;42463;52.214;21.238;2024-02-21T04:22:10;15.50;;;7.70;;
56581;SDS011;42463;52.214;21.238;2024-02-21T04:24:43;15.70;;;8.90;;
56581;SDS011;42463;52.214;21.238;2024-02-21T04:27:16;15.50;;;8.10;;
56581;SDS011;42463;52.214;21.238;2024-02-21T04:29:48;13.30;;;8.00;;
56581;SDS011;42463;52.214;21.238;2024-02-21T04:32:21;13.10;;;7.70;;
56581;SDS011;42463;52.214;21.238;2024-02-21T04:34:53;12.30;;;7.80;;
56581;SDS011;42463;52.214;21.238;2024-02-21T04:37:26;13.60;;;7.40;;
56581;SDS011;42463;52.214;21.238;2024-02-21T04:39:59;13.10;;;7.50;;
56581;SDS011;42463;52.214;21.238;2024-02-21T04:42:31;12.10;;;7.50;;
56581;SDS011;42463;52.214;21.238;2024-02-21T04:45:05;11.30;;;7.20;;
56581;SDS011;42463;52.214;21.238;2024-02-21T04:47:38;14.60;;;7.60;;
56581;SDS011;42463;52.214;21.238;2024-02-21T04:50:11;16.00;;;7.30;;
56581;SDS011;42463;52.214;21.238;2024-02-21T04:52:44;13.90;;;7.40;;
56581;SDS011;42463;52.214;21.238;2024-02-21T04:55:16;15.30;;;7.20;;
56581;SDS011;42463;52.214;21.238;2024-02-21T04:57:49;13.00;;;7.10;;
56581;SDS011;42463;52.214;21.238;2024-02-21T05:00:22;12.30;;;7.20;;
56581;SDS011;42463;52.214;21.238;2024-02-21T05:02:54;15.30;;;7.50;;
56581;SDS011;42463;52.214;21.238;2024-02-21T05:05:27;9.80;;;6.50;;
56581;SDS011;42463;52.214;21.238;2024-02-21T05:07:59;13.30;;;7.50;;
56581;SDS011;42463;52.214;21.238;2024-02-21T05:10:31;12.10;;;7.80;;
56581;SDS011;42463;52.214;21.238;2024-02-21T05:13:04;11.30;;;6.90;;
56581;SDS011;42463;52.214;21.238;2024-02-21T05:15:37;14.40;;;7.90;;
56581;SDS011;42463;52.214;21.238;2024-02-21T05:18:09;10.80;;;7.20;;
56581;SDS011;42463;52.214;21.238;2024-02-21T05:20:43;15.60;;;7.90;;
56581;SDS011;42463;52.214;21.238;2024-02-21T05:23:16;11.00;;;7.50;;
56581;SDS011;42463;52.214;21.238;2024-02-21T05:25:48;13.90;;;7.30;;
56581;SDS011;42463;52.214;21.238;2024-02-21T05:28:21;12.70;;;7.00;;
56581;SDS011;42463;52.214;21.238;2024-02-21T05:30:53;15.50;;;8.00;;
56581;SDS011;42463;52.214;21.238;2024-02-21T05:33:26;14.00;;;7.60;;
56581;SDS011;42463;52.214;21.238;2024-02-21T05:35:59;16.10;;;8.50;;
56581;SDS011;42463;52.214;21.238;2024-02-21T05:38:32;15.20;;;8.00;;
56581;SDS011;42463;52.214;21.238;2024-02-21T05:41:05;15.10;;;7.80;;
56581;SDS011;42463;52.214;21.238;2024-02-21T05:43:38;16.00;;;7.60;;
56581;SDS011;42463;52.214;21.238;2024-02-21T05:46:11;14.50;;;8.00;;
56581;SDS011;42463;52.214;21.238;2024-02-21T05:48:43;17.90;;;8.10;;
56581;SDS011;42463;52.214;21.238;2024-02-21T05:51:15;14.50;;;8.40;;
56581;SDS011;42463;52.214;21.238;2024-02-21T05:53:48;11.70;;;7.80;;
56581;SDS011;42463;52.214;21.238;2024-02-21T05:56:20;13.50;;;7.80;;
56581;SDS011;42463;52.214;21.238;2024-02-21T05:58:53;14.10;;;8.10;;
56581;SDS011;42463;52.214;21.238;2024-02-21T06:01:26;13.60;;;7.80;;
56581;SDS011;42463;52.214;21.238;2024-02-21T06:03:58;11.30;;;7.50;;
56581;SDS011;42463;52.214;21.238;2024-02-21T06:06:31;15.00;;;7.70;;
56581;SDS011;42463;52.214;21.238;2024-02-21T06:09:03;14.60;;;7.90;;
56581;SDS011;42463;52.214;21.238;2024-02-21T06:11:36;14.80;;;8.30;;
56581;SDS011;42463;52.214;21.238;2024-02-21T06:14:08;13.80;;;7.20;;
56581;SDS011;42463;52.214;21.238;2024-02-21T06:16:41;12.60;;;7.00;;
56581;SDS011;42463;52.214;21.238;2024-02-21T06:19:13;11.90;;;7.40;;
56581;SDS011;42463;52.214;21.238;2024-02-21T06:21:46;13.20;;;7.30;;
56581;SDS011;42463;52.214;21.238;2024-02-21T06:24:18;17.90;;;7.70;;
56581;SDS011;42463;52.214;21.238;2024-02-21T06:26:51;14.20;;;6.90;;
56581;SDS011;42463;52.214;21.238;2024-02-21T06:29:24;16.80;;;7.60;;
56581;SDS011;42463;52.214;21.238;2024-02-21T06:31:56;14.80;;;7.90;;
56581;SDS011;42463;52.214;21.238;2024-02-21T06:34:28;15.10;;;7.60;;
56581;SDS011;42463;52.214;21.238;2024-02-21T06:37:02;17.80;;;8.20;;
56581;SDS011;42463;52.214;21.238;2024-02-21T06:39:35;15.90;;;7.90;;
56581;SDS011;42463;52.214;21.238;2024-02-21T06:42:10;16.10;;;8.90;;
56581;SDS011;42463;52.214;21.238;2024-02-21T06:44:43;16.00;;;7.60;;
56581;SDS011;42463;52.214;21.238;2024-02-21T06:47:16;15.90;;;8.20;;
56581;SDS011;42463;52.214;21.238;2024-02-21T06:49:51;16.50;;;8.30;;
56581;SDS011;42463;52.214;21.238;2024-02-21T06:52:23;16.00;;;8.30;;
56581;SDS011;42463;52.214;21.238;2024-02-21T06:54:56;14.30;;;8.30;;
56581;SDS011;42463;52.214;21.238;2024-02-21T06:57:30;13.90;;;8.20;;
56581;SDS011;42463;52.214;21.238;2024-02-21T07:00:03;13.90;;;8.20;;
56581;SDS011;42463;52.214;21.238;2024-02-21T07:02:37;14.30;;;7.70;;
56581;SDS011;42463;52.214;21.238;2024-02-21T07:05:10;13.90;;;8.40;;
56581;SDS011;42463;52.214;21.238;2024-02-21T07:07:42;15.30;;;8.60;;
56581;SDS011;42463;52.214;21.238;2024-02-21T07:10:14;15.90;;;8.30;;
56581;SDS011;42463;52.214;21.238;2024-02-21T07:12:47;16.10;;;9.10;;
56581;SDS011;42463;52.214;21.238;2024-02-21T07:17:56;16.50;;;9.30;;
56581;SDS011;42463;52.214;21.238;2024-02-21T07:20:28;18.80;;;9.70;;
56581;SDS011;42463;52.214;21.238;2024-02-21T07:25:34;16.60;;;9.00;;
56581;SDS011;42463;52.214;21.238;2024-02-21T07:28:07;18.90;;;10.00;;
56581;SDS011;42463;52.214;21.238;2024-02-21T07:30:39;18.20;;;9.70;;
56581;SDS011;42463;52.214;21.238;2024-02-21T07:33:12;18.70;;;9.70;;
56581;SDS011;42463;52.214;21.238;2024-02-21T07:35:44;20.30;;;10.60;;
56581;SDS011;42463;52.214;21.238;2024-02-21T07:38:16;17.90;;;9.70;;
56581;SDS011;42463;52.214;21.238;2024-02-21T07:40:49;16.70;;;9.90;;
56581;SDS011;42463;52.214;21.238;2024-02-21T07:43:21;18.10;;;10.00;;
56581;SDS011;42463;52.214;21.238;2024-02-21T07:45:56;18.00;;;10.00;;
56581;SDS011;42463;52.214;21.238;2024-02-21T07:48:28;19.60;;;10.90;;
56581;SDS011;42463;52.214;21.238;2024-02-21T07:51:00;20.70;;;10.90;;
56581;SDS011;42463;52.214;21.238;2024-02-21T07:53:33;23.20;;;10.70;;
56581;SDS011;42463;52.214;21.238;2024-02-21T07:56:07;22.50;;;10.90;;
56581;SDS011;42463;52.214;21.238;2024-02-21T07:58:40;19.90;;;10.50;;
56581;SDS011;42463;52.214;21.238;2024-02-21T08:01:17;22.40;;;11.40;;
56581;SDS011;42463;52.214;21.238;2024-02-21T08:03:51;19.20;;;10.80;;
56581;SDS011;42463;52.214;21.238;2024-02-21T08:06:23;20.10;;;10.40;;
56581;SDS011;42463;52.214;21.238;2024-02-21T08:08:56;23.00;;;11.90;;
56581;SDS011;42463;52.214;21.238;2024-02-21T08:11:30;20.40;;;12.50;;
56581;SDS011;42463;52.214;21.238;2024-02-21T08:14:03;23.50;;;11.10;;
56581;SDS011;42463;52.214;21.238;2024-02-21T08:16:36;18.60;;;11.40;;
56581;SDS011;42463;52.214;21.238;2024-02-21T08:19:09;20.80;;;11.90;;
56581;SDS011;42463;52.214;21.238;2024-02-21T08:21:41;26.10;;;12.60;;
56581;SDS011;42463;52.214;21.238;2024-02-21T08:24:16;24.40;;;12.40;;
56581;SDS011;42463;52.214;21.238;2024-02-21T08:26:49;25.80;;;12.80;;
56581;SDS011;42463;52.214;21.238;2024-02-21T08:29:21;28.50;;;13.20;;
56581;SDS011;42463;52.214;21.238;2024-02-21T08:31:54;23.10;;;12.40;;
56581;SDS011;42463;52.214;21.238;2024-02-21T08:34:26;25.00;;;13.20;;
56581;SDS011;42463;52.214;21.238;2024-02-21T08:37:03;23.90;;;12.60;;
56581;SDS011;42463;52.214;21.238;2024-02-21T08:39:35;24.90;;;12.40;;
56581;SDS011;42463;52.214;21.238;2024-02-21T08:42:08;27.50;;;12.50;;
56581;SDS011;42463;52.214;21.238;2024-02-21T08:44:42;25.00;;;11.60;;
56581;SDS011;42463;52.214;21.238;2024-02-21T08:47:15;23.20;;;12.40;;
56581;SDS011;42463;52.214;21.238;2024-02-21T08:49:48;27.20;;;12.50;;
56581;SDS011;42463;52.214;21.238;2024-02-21T08:52:20;27.60;;;12.50;;
56581;SDS011;42463;52.214;21.238;2024-02-21T08:54:53;26.90;;;12.20;;
56581;SDS011;42463;52.214;21.238;2024-02-21T08:57:25;25.20;;;11.90;;
56581;SDS011;42463;52.214;21.238;2024-02-21T08:59:57;24.20;;;12.00;;
56581;SDS011;42463;52.214;21.238;2024-02-21T09:02:30;28.70;;;11.90;;
56581;SDS011;42463;52.214;21.238;2024-02-21T09:05:03;22.50;;;10.70;;
56581;SDS011;42463;52.214;21.238;2024-02-21T09:07:36;28.10;;;13.10;;
56581;SDS011;42463;52.214;21.238;2024-02-21T09:10:10;25.00;;;11.40;;
56581;SDS011;42463;52.214;21.238;2024-02-21T09:12:42;23.40;;;11.30;;
56581;SDS011;42463;52.214;21.238;2024-02-21T09:15:15;21.00;;;11.00;;
56581;SDS011;42463;52.214;21.238;2024-02-21T09:17:47;20.90;;;11.10;;
56581;SDS011;42463;52.214;21.238;2024-02-21T09:20:20;22.80;;;11.90;;
56581;SDS011;42463;52.214;21.238;2024-02-21T09:22:52;26.40;;;11.80;;
56581;SDS011;42463;52.214;21.238;2024-02-21T09:25:25;19.30;;;10.60;;
56581;SDS011;42463;52.214;21.238;2024-02-21T09:27:57;21.90;;;10.10;;
56581;SDS011;42463;52.214;21.238;2024-02-21T09:30:32;20.80;;;11.00;;
56581;SDS011;42463;52.214;21.238;2024-02-21T09:33:05;22.20;;;10.20;;
56581;SDS011;42463;52.214;21.238;2024-02-21T09:35:37;24.80;;;10.90;;
56581;SDS011;42463;52.214;21.238;2024-02-21T09:38:10;24.50;;;10.00;;
56581;SDS011;42463;52.214;21.238;2024-02-21T09:40:42;20.10;;;10.70;;
56581;SDS011;42463;52.214;21.238;2024-02-21T09:43:15;25.40;;;10.50;;
56581;SDS011;42463;52.214;21.238;2024-02-21T09:45:50;18.90;;;9.50;;
56581;SDS011;42463;52.214;21.238;2024-02-21T09:48:33;29.60;;;11.00;;
56581;SDS011;42463;52.214;21.238;2024-02-21T09:51:15;19.50;;;9.10;;
56581;SDS011;42463;52.214;21.238;2024-02-21T09:53:49;18.90;;;8.90;;
56581;SDS011;42463;52.214;21.238;2024-02-21T09:56:23;21.90;;;9.50;;
56581;SDS011;42463;52.214;21.238;2024-02-21T09:58:56;23.40;;;9.90;;
56581;SDS011;42463;52.214;21.238;2024-02-21T10:01:30;22.40;;;9.70;;
56581;SDS011;42463;52.214;21.238;2024-02-21T10:04:02;19.70;;;9.10;;
56581;SDS011;42463;52.214;21.238;2024-02-21T10:06:36;20.60;;;9.90;;
56581;SDS011;42463;52.214;21.238;2024-02-21T10:09:19;19.00;;;8.80;;
56581;SDS011;42463;52.214;21.238;2024-02-21T10:12:14;16.80;;;8.20;;
56581;SDS011;42463;52.214;21.238;2024-02-21T10:14:48;19.30;;;8.90;;
56581;SDS011;42463;52.214;21.238;2024-02-21T10:17:30;20.60;;;8.10;;
56581;SDS011;42463;52.214;21.238;2024-02-21T10:20:10;18.80;;;8.80;;
56581;SDS011;42463;52.214;21.238;2024-02-21T10:22:44;18.00;;;8.20;;
56581;SDS011;42463;52.214;21.238;2024-02-21T10:25:17;19.60;;;7.90;;
56581;SDS011;42463;52.214;21.238;2024-02-21T10:27:49;21.00;;;8.00;;
56581;SDS011;42463;52.214;21.238;2024-02-21T10:30:22;19.80;;;8.00;;
56581;SDS011;42463;52.214;21.238;2024-02-21T10:32:55;21.00;;;7.80;;
56581;SDS011;42463;52.214;21.238;2024-02-21T10:35:29;21.60;;;8.60;;
56581;SDS011;42463;52.214;21.238;2024-02-21T10:38:03;18.20;;;7.40;;
56581;SDS011;42463;52.214;21.238;2024-02-21T10:40:36;22.30;;;8.10;;
56581;SDS011;42463;52.214;21.238;2024-02-21T10:43:12;24.10;;;8.80;;
56581;SDS011;42463;52.214;21.238;2024-02-21T10:45:44;18.40;;;6.80;;
56581;SDS011;42463;52.214;21.238;2024-02-21T10:48:20;20.20;;;8.00;;
56581;SDS011;42463;52.214;21.238;2024-02-21T10:51:03;18.10;;;7.70;;
56581;SDS011;42463;52.214;21.238;2024-02-21T10:53:47;15.50;;;7.40;;
56581;SDS011;42463;52.214;21.238;2024-02-21T10:56:30;20.40;;;8.00;;
56581;SDS011;42463;52.214;21.238;2024-02-21T10:59:06;18.30;;;7.30;;
56581;SDS011;42463;52.214;21.238;2024-02-21T11:01:40;18.30;;;7.30;;
56581;SDS011;42463;52.214;21.238;2024-02-21T11:04:12;15.40;;;7.10;;
56581;SDS011;42463;52.214;21.238;2024-02-21T11:06:45;13.60;;;7.00;;
56581;SDS011;42463;52.214;21.238;2024-02-21T11:09:18;17.20;;;8.40;;
56581;SDS011;42463;52.214;21.238;2024-02-21T11:12:01;15.40;;;7.80;;
56581;SDS011;42463;52.214;21.238;2024-02-21T11:14:37;15.80;;;8.00;;
56581;SDS011;42463;52.214;21.238;2024-02-21T11:17:18;21.70;;;9.10;;
56581;SDS011;42463;52.214;21.238;2024-02-21T11:19:56;18.90;;;8.60;;
56581;SDS011;42463;52.214;21.238;2024-02-21T11:22:40;18.00;;;8.40;;
56581;SDS011;42463;52.214;21.238;2024-02-21T11:25:20;15.10;;;7.70;;
56581;SDS011;42463;52.214;21.238;2024-02-21T11:28:00;21.40;;;9.20;;
56581;SDS011;42463;52.214;21.238;2024-02-21T11:30:34;17.50;;;8.80;;
56581;SDS011;42463;52.214;21.238;2024-02-21T11:33:08;25.50;;;9.90;;
56581;SDS011;42463;52.214;21.238;2024-02-21T11:35:43;23.60;;;10.90;;
56581;SDS011;42463;52.214;21.238;2024-02-21T11:38:15;15.70;;;9.30;;
56581;SDS011;42463;52.214;21.238;2024-02-21T11:40:48;20.90;;;10.60;;
56581;SDS011;42463;52.214;21.238;2024-02-21T11:43:20;21.60;;;10.40;;
56581;SDS011;42463;52.214;21.238;2024-02-21T11:45:59;22.90;;;10.60;;
56581;SDS011;42463;52.214;21.238;2024-02-21T11:48:34;24.50;;;10.80;;
56581;SDS011;42463;52.214;21.238;2024-02-21T11:51:07;22.30;;;10.40;;
56581;SDS011;42463;52.214;21.238;2024-02-21T11:53:39;20.80;;;9.90;;
56581;SDS011;42463;52.214;21.238;2024-02-21T11:56:13;20.30;;;10.70;;
56581;SDS011;42463;52.214;21.238;2024-02-21T11:58:46;22.00;;;10.80;;
56581;SDS011;42463;52.214;21.238;2024-02-21T12:01:19;21.30;;;10.50;;
56581;SDS011;42463;52.214;21.238;2024-02-21T12:03:52;22.50;;;11.00;;
56581;SDS011;42463;52.214;21.238;2024-02-21T12:06:26;23.10;;;11.60;;
56581;SDS011;42463;52.214;21.238;2024-02-21T12:09:00;20.40;;;11.20;;
56581;SDS011;42463;52.214;21.238;2024-02-21T12:11:34;20.10;;;10.50;;
56581;SDS011;42463;52.214;21.238;2024-02-21T12:14:07;20.90;;;11.00;;
56581;SDS011;42463;52.214;21.238;2024-02-21T12:16:39;19.40;;;11.20;;
56581;SDS011;42463;52.214;21.238;2024-02-21T12:19:13;20.50;;;11.50;;
56581;SDS011;42463;52.214;21.238;2024-02-21T12:21:49;25.00;;;11.80;;
56581;SDS011;42463;52.214;21.238;2024-02-21T12:24:24;23.70;;;12.20;;
56581;SDS011;42463;52.214;21.238;2024-02-21T12:26:58;22.40;;;11.40;;
56581;SDS011;42463;52.214;21.238;2024-02-21T12:29:33;21.70;;;12.50;;
56581;SDS011;42463;52.214;21.238;2024-02-21T12:32:06;19.90;;;11.50;;
56581;SDS011;42463;52.214;21.238;2024-02-21T12:34:39;19.70;;;12.00;;
56581;SDS011;42463;52.214;21.238;2024-02-21T12:37:11;18.60;;;11.00;;
56581;SDS011;42463;52.214;21.238;2024-02-21T12:39:45;20.00;;;12.30;;
56581;SDS011;42463;52.214;21.238;2024-02-21T12:42:18;23.10;;;12.30;;
56581;SDS011;42463;52.214;21.238;2024-02-21T12:44:50;22.60;;;11.70;;
56581;SDS011;42463;52.214;21.238;2024-02-21T12:47:23;19.10;;;12.40;;
56581;SDS011;42463;52.214;21.238;2024-02-21T12:49:56;23.00;;;11.70;;
56581;SDS011;42463;52.214;21.238;2024-02-21T12:52:28;20.80;;;10.80;;
56581;SDS011;42463;52.214;21.238;2024-02-21T12:55:01;19.20;;;11.80;;
56581;SDS011;42463;52.214;21.238;2024-02-21T12:57:34;23.30;;;12.50;;
56581;SDS011;42463;52.214;21.238;2024-02-21T13:00:08;21.70;;;11.70;;
56581;SDS011;42463;52.214;21.238;2024-02-21T13:02:42;23.10;;;12.30;;
56581;SDS011;42463;52.214;21.238;2024-02-21T13:05:16;24.00;;;12.50;;
56581;SDS011;42463;52.214;21.238;2024-02-21T13:07:48;23.40;;;12.30;;
56581;SDS011;42463;52.214;21.238;2024-02-21T13:10:21;22.20;;;12.50;;
56581;SDS011;42463;52.214;21.238;2024-02-21T13:12:53;25.00;;;12.50;;
56581;SDS011;42463;52.214;21.238;2024-02-21T13:15:26;23.10;;;12.40;;
56581;SDS011;42463;52.214;21.238;2024-02-21T13:17:59;21.20;;;12.70;;
56581;SDS011;42463;52.214;21.238;2024-02-21T13:20:31;23.20;;;13.00;;
56581;SDS011;42463;52.214;21.238;2024-02-21T13:23:04;23.20;;;12.50;;
56581;SDS011;42463;52.214;21.238;2024-02-21T13:25:36;23.00;;;12.50;;
56581;SDS011;42463;52.214;21.238;2024-02-21T13:28:09;17.80;;;12.40;;
56581;SDS011;42463;52.214;21.238;2024-02-21T13:30:42;23.10;;;12.80;;
56581;SDS011;42463;52.214;21.238;2024-02-21T13:33:15;22.00;;;12.60;;
56581;SDS011;42463;52.214;21.238;2024-02-21T13:35:48;18.50;;;12.40;;
56581;SDS011;42463;52.214;21.238;2024-02-21T13:38:22;22.10;;;12.10;;
56581;SDS011;42463;52.214;21.238;2024-02-21T13:40:54;23.80;;;12.40;;
56581;SDS011;42463;52.214;21.238;2024-02-21T13:43:27;18.60;;;11.50;;
56581;SDS011;42463;52.214;21.238;2024-02-21T13:46:03;22.00;;;12.00;;
56581;SDS011;42463;52.214;21.238;2024-02-21T13:48:39;23.90;;;12.60;;
56581;SDS011;42463;52.214;21.238;2024-02-21T13:51:11;20.10;;;11.70;;
56581;SDS011;42463;52.214;21.238;2024-02-21T13:53:46;21.80;;;12.00;;
56581;SDS011;42463;52.214;21.238;2024-02-21T13:56:19;23.10;;;12.30;;
56581;SDS011;42463;52.214;21.238;2024-02-21T13:58:52;21.20;;;12.60;;
56581;SDS011;42463;52.214;21.238;2024-02-21T14:01:29;19.10;;;12.00;;
56581;SDS011;42463;52.214;21.238;2024-02-21T14:04:03;18.10;;;11.70;;
56581;SDS011;42463;52.214;21.238;2024-02-21T14:06:36;22.40;;;12.20;;
56581;SDS011;42463;52.214;21.238;2024-02-21T14:09:12;24.00;;;12.70;;
56581;SDS011;42463;52.214;21.238;2024-02-21T14:11:45;22.10;;;11.90;;
56581;SDS011;42463;52.214;21.238;2024-02-21T14:14:17;21.70;;;12.20;;
56581;SDS011;42463;52.214;21.238;2024-02-21T14:16:49;22.90;;;12.20;;
56581;SDS011;42463;52.214;21.238;2024-02-21T14:19:22;18.60;;;10.80;;
56581;SDS011;42463;52.214;21.238;2024-02-21T14:21:54;20.00;;;11.70;;
56581;SDS011;42463;52.214;21.238;2024-02-21T14:24:35;22.40;;;11.30;;
56581;SDS011;42463;52.214;21.238;2024-02-21T14:27:07;19.10;;;10.40;;
56581;SDS011;42463;52.214;21.238;2024-02-21T14:29:40;21.30;;;10.60;;
56581;SDS011;42463;52.214;21.238;2024-02-21T14:32:20;21.90;;;11.40;;
56581;SDS011;42463;52.214;21.238;2024-02-21T14:34:53;19.30;;;11.10;;
56581;SDS011;42463;52.214;21.238;2024-02-21T14:37:25;19.60;;;11.20;;
56581;SDS011;42463;52.214;21.238;2024-02-21T14:39:58;19.00;;;10.70;;
56581;SDS011;42463;52.214;21.238;2024-02-21T14:42:31;22.10;;;11.80;;
56581;SDS011;42463;52.214;21.238;2024-02-21T14:45:05;19.00;;;9.40;;
56581;SDS011;42463;52.214;21.238;2024-02-21T14:47:39;17.30;;;10.00;;
56581;SDS011;42463;52.214;21.238;2024-02-21T14:50:12;19.50;;;10.30;;
56581;SDS011;42463;52.214;21.238;2024-02-21T14:52:45;16.30;;;9.80;;
56581;SDS011;42463;52.214;21.238;2024-02-21T14:55:18;17.10;;;9.60;;
56581;SDS011;42463;52.214;21.238;2024-02-21T14:57:50;19.00;;;9.90;;
56581;SDS011;42463;52.214;21.238;2024-02-21T15:00:23;18.80;;;9.90;;
56581;SDS011;42463;52.214;21.238;2024-02-21T15:03:00;16.60;;;10.10;;
56581;SDS011;42463;52.214;21.238;2024-02-21T15:05:34;17.70;;;10.00;;